Aeroporto :
LOGIN :

Iscrizione | Disclaimer

   EN    FR    IT 

 










Sommario :    VFR   VFR Marginale   IFR   IFR Intensivo   IFR Molto Intensivo
Visibilità : 
Base nubi : 
>= 8 km
>= 3000ft
5 / 8 km
1000 / 3000 ft
1500m / 5 km
500 / 1000 ft
800 / 1500m
200 / 500 ft
< 800m
< 200 ft
Simboli :   Temporali  Nebbia  Neve Forte  Precipitazioni Forti  Vento > 20 kt
SIGMETs :   Varie  Temporali  Ghiacco  Turbolenza  Onda orograficha  Ceneri Vulcaniche






- Altitudine del aeroporto : 122 ft
- Codice IATA : TXL


EDDT - Berlin Tegel Int.

ULTIMO METAR :
  • 112020Z 15008KT CAVOK 03/00 Q1007 NOSIG

METARs OBSOLETI :
  • 111950Z 15011KT CAVOK 03/00 Q1007 NOSIG
  • 111920Z 16012KT CAVOK 03/00 Q1007 NOSIG
  • 111850Z 17013KT 130V200 CAVOK 04/00 Q1007 NOSIG
  • 111820Z 15009KT 130V190 CAVOK 04/00 Q1008 NOSIG
  • 111750Z 15008KT CAVOK 05/00 Q1008 NOSIG

TAF TAF EDDT
Valido dal 11 a 18 ore il 12 a 18 ore UTC


111700Z 1118/1218 15007KT CAVOK
BECMG 1208/1210 21009KT



MetMap, La meteo Aeronautica in un colpo d'occhio ! - Copyright ORBIFLY Dicembre 2007 - Disclaimer

ORBIFLY MET'MAP TEAM :

Programmazione e sviluppo : Alexandra Zaïnal
Concezione e sviluppo : Baudouin d'Aumeries
Co-Programmazione e sviluppo : Marc-Olivier Méhu
Supporto tecnico e logistico : Manuel Goepfert
Aiuto per la traduzione : Arnaldo La Scala

Contatto : metmap@orbifly.com




FONTI E CREDITI :

   NOAA